Weather at Dublin Airport

Public forecast

Using degrees Celsius for public forecast. Weather courtesy of forecast.io.

Current aviation weather report (METAR) for Dublin Airport

Retrieved 2021/03/04 10:30 UTC (2 hours ago):

EIDW 041030Z 03008KT 9999 FEW012 BKN024 04/01 Q1027 NOSIG

Aviation forecast (TAF) for Dublin Airport

Forecast is more than 6 hours old.

Retrieved 2021/03/04 06:09 UTC (6 hours ago):

TAF EIDW 040500Z 0406/0506 03008KT 9999 SCT008 BKN014 PROB30 TEMPO 0406/0408 3000 BR BKN008 BECMG 0408/0410 06009KT BKN018 BECMG 0420/0422 10008KT